No particular awareness of the weather is required.    There are no Weather-warnings


Meteo18 Weather Cam more information Meteo18 Weather Cam


Thunder radar more information blitzortung!


Rain radar more information rain snow radar


Visit our other weather sites:

Template documentation
and downloads

And another site



Weather Underground History page Text

Daily Summary for January 14, 2016 Units:  Metric    English   Both
« Previous Day
Next Day »
Daily Weekly Monthly Yearly Custom
  High: Low: Average:
Temperature: 5.8 °C -1.4 °C 1.9 °C
Dew Point: 4.6 °C -1.8 °C 1 °C
Humidity: 98 % 85 % 94 %
Wind Speed: 6.4 km/h 0.0 km/h 0.6 km/h
Wind Gust: 9.7 km/h - -
Wind:- - SW
Pressure: 1017.2 hPa 1010.0 hPa -
Precipitation: 1.8 mm    
Historical Graphs
 
 
Tabular Data for January 14, 2016
Time Temperature Dew Point Pressure Wind Wind Speed Wind Gust Humidity Rainfall Rate (Hourly)
00:02 -0.7 °C -1.3 °C 1017.2 hPa Calm     96 % 0.0 mm
00:12 -0.8 °C -1.4 °C 1016.8 hPa Calm     96 % 0.0 mm
00:17 -0.8 °C -1.2 °C 1016.8 hPa Calm     97 % 0.0 mm
00:22 -0.9 °C -1.3 °C 1016.5 hPa Calm     97 % 0.0 mm
00:32 -0.8 °C -1.2 °C 1016.5 hPa Calm     97 % 0.0 mm
00:42 -0.8 °C -1.2 °C 1016.1 hPa Calm     97 % 0.0 mm
00:52 -0.8 °C -1.2 °C 1016.1 hPa Calm     97 % 0.0 mm
00:57 -0.8 °C -1.2 °C 1016.1 hPa Calm     97 % 0.0 mm
01:02 -0.8 °C -1.2 °C 1016.1 hPa Calm     97 % 0.0 mm
01:07 -0.9 °C -1.3 °C 1016.1 hPa Calm     97 % 0.0 mm
01:12 -0.9 °C -1.3 °C 1016.1 hPa Calm     97 % 0.0 mm
01:17 -0.9 °C -1.3 °C 1015.8 hPa Calm     97 % 0.0 mm
01:22 -1.1 °C -1.5 °C 1015.5 hPa Calm     97 % 0.0 mm
01:27 -1.0 °C -1.4 °C 1015.5 hPa Calm     97 % 0.0 mm
01:37 -0.9 °C -1.3 °C 1015.5 hPa Calm     97 % 0.0 mm
01:42 -1.0 °C -1.4 °C 1015.1 hPa Calm     97 % 0.0 mm
01:47 -0.9 °C -1.3 °C 1015.1 hPa Calm     97 % 0.0 mm
01:52 -1.0 °C -1.4 °C 1015.1 hPa Calm     97 % 0.0 mm
01:57 -1.1 °C -1.5 °C 1014.8 hPa Calm     97 % 0.0 mm
02:02 -1.2 °C -1.6 °C 1014.8 hPa Calm     97 % 0.0 mm
02:07 -1.2 °C -1.6 °C 1014.8 hPa Calm     97 % 0.0 mm
02:12 -1.4 °C -1.8 °C 1014.4 hPa Calm     97 % 0.0 mm
02:17 -1.4 °C -1.8 °C 1014.4 hPa Calm     97 % 0.0 mm
02:22 -1.4 °C -1.8 °C 1014.4 hPa Calm     97 % 0.0 mm
02:27 -1.3 °C -1.7 °C 1014.4 hPa Calm     97 % 0.0 mm
02:32 -1.3 °C -1.7 °C 1014.4 hPa Calm     97 % 0.0 mm
02:42 -1.4 °C -1.8 °C 1014.1 hPa Calm     97 % 0.0 mm
02:47 -1.4 °C -1.8 °C 1014.1 hPa Calm     97 % 0.0 mm
02:52 -1.3 °C -1.7 °C 1014.1 hPa Calm     97 % 0.0 mm
02:57 -1.3 °C -1.7 °C 1014.1 hPa Calm     97 % 0.0 mm
03:02 -1.4 °C -1.8 °C 1014.1 hPa Calm     97 % 0.0 mm
03:12 -1.3 °C -1.7 °C 1013.8 hPa Calm     97 % 0.0 mm
03:19 -1.3 °C -1.7 °C 1013.8 hPa Calm     97 % 0.0 mm
03:27 -1.3 °C -1.7 °C 1013.4 hPa Calm     97 % 0.0 mm
03:32 -1.3 °C -1.7 °C 1013.8 hPa Calm     97 % 0.0 mm
03:37 -1.3 °C -1.7 °C 1013.4 hPa Calm     97 % 0.0 mm
03:42 -1.2 °C -1.6 °C 1013.4 hPa Calm     97 % 0.0 mm
03:47 -1.1 °C -1.5 °C 1013.4 hPa Calm     97 % 0.0 mm
03:52 -0.9 °C -1.2 °C 1013.4 hPa Calm   1.6 km/h 98 % 0.0 mm
03:57 -0.9 °C -1.2 °C 1013.4 hPa Calm   1.6 km/h 98 % 0.0 mm
04:02 -0.8 °C -1.1 °C 1013.1 hPa Calm   1.6 km/h 98 % 0.0 mm
04:12 -0.9 °C -1.3 °C 1013.1 hPa Calm     97 % 0.0 mm
04:22 -1.1 °C -1.5 °C 1012.8 hPa Calm     97 % 0.0 mm
04:27 -1.1 °C -1.5 °C 1012.8 hPa Calm     97 % 0.0 mm
04:32 -1.0 °C -1.4 °C 1012.8 hPa Calm     97 % 0.0 mm
04:42 -1.1 °C -1.5 °C 1012.8 hPa Calm     97 % 0.0 mm
04:52 -0.9 °C -1.3 °C 1012.4 hPa Calm     97 % 0.0 mm
04:57 -0.9 °C -1.3 °C 1012.4 hPa Calm     97 % 0.0 mm
05:02 -0.8 °C -1.2 °C 1012.1 hPa Calm     97 % 0.0 mm
05:12 -0.8 °C -1.2 °C 1011.7 hPa Calm     97 % 0.0 mm
05:17 -0.8 °C -1.2 °C 1011.7 hPa Calm     97 % 0.0 mm
05:22 -0.9 °C -1.3 °C 1011.7 hPa Calm     97 % 0.0 mm
05:27 -0.9 °C -1.3 °C 1011.7 hPa Calm     97 % 0.0 mm
05:37 -0.8 °C -1.2 °C 1011.7 hPa Calm     97 % 0.0 mm
05:42 -0.7 °C -1.1 °C 1011.4 hPa Calm     97 % 0.0 mm
05:47 -0.6 °C -0.9 °C 1011.4 hPa Calm     98 % 0.0 mm
05:52 -0.6 °C -0.9 °C 1011.4 hPa Calm     98 % 0.0 mm
05:57 -0.6 °C -0.9 °C 1011.4 hPa Calm     98 % 0.0 mm
06:02 -0.5 °C -0.8 °C 1011.4 hPa Calm     98 % 0.0 mm
06:07 -0.5 °C -0.9 °C 1011.4 hPa Calm   1.6 km/h 97 % 0.0 mm
06:12 -0.4 °C -0.8 °C 1011.1 hPa Calm   1.6 km/h 97 % 0.0 mm
06:17 -0.4 °C -0.7 °C 1011.1 hPa Calm   1.6 km/h 98 % 0.0 mm
06:22 -0.4 °C -0.7 °C 1010.7 hPa Calm     98 % 0.0 mm
06:27 -0.4 °C -0.8 °C 1010.7 hPa Calm     97 % 0.0 mm
06:32 -0.4 °C -0.8 °C 1010.7 hPa Calm     97 % 0.0 mm
06:37 -0.4 °C -0.8 °C 1010.7 hPa Calm     97 % 0.0 mm
06:42 -0.4 °C -0.8 °C 1010.4 hPa Calm     97 % 0.0 mm
06:52 -0.4 °C -0.8 °C 1010.7 hPa Calm     97 % 0.0 mm
06:57 -0.4 °C -0.8 °C 1010.4 hPa Calm     97 % 0.0 mm
07:02 -0.4 °C -0.8 °C 1010.4 hPa Calm     97 % 0.0 mm
07:12 -0.3 °C -0.7 °C 1010.4 hPa Calm     97 % 0.0 mm
07:17 -0.4 °C -0.8 °C 1010.4 hPa Calm     97 % 0.0 mm
07:22 -0.4 °C -0.8 °C 1010.4 hPa Calm     97 % 0.0 mm
07:27 -0.4 °C -0.8 °C 1010.7 hPa Calm     97 % 0.0 mm
07:32 -0.4 °C -0.8 °C 1010.4 hPa Calm     97 % 0.0 mm
07:37 -0.4 °C -0.8 °C 1010.4 hPa Calm     97 % 0.0 mm
07:42 -0.3 °C -0.7 °C 1010.4 hPa Calm     97 % 0.0 mm
07:47 -0.3 °C -0.7 °C 1010.7 hPa Calm     97 % 0.0 mm
07:52 -0.3 °C -0.7 °C 1010.4 hPa Calm     97 % 0.0 mm
07:57 -0.3 °C -0.7 °C 1010.0 hPa Calm     97 % 0.0 mm
08:02 -0.3 °C -0.7 °C 1010.0 hPa Calm     97 % 0.0 mm
08:12 -0.3 °C -0.6 °C 1010.0 hPa Calm     98 % 0.0 mm
08:17 -0.3 °C -0.7 °C 1010.0 hPa Calm     97 % 0.0 mm
08:22 -0.3 °C -0.6 °C 1010.0 hPa Calm     98 % 0.0 mm
08:32 -0.3 °C -0.7 °C 1010.0 hPa Calm     97 % 0.0 mm
08:42 -0.4 °C -0.8 °C 1010.0 hPa Calm     97 % 0.0 mm
08:52 -0.3 °C -0.7 °C 1010.0 hPa Calm     97 % 0.0 mm
08:57 -0.2 °C -0.5 °C 1010.0 hPa Calm     98 % 0.0 mm
09:12 -0.1 °C -0.4 °C 1010.0 hPa Calm     98 % 0.0 mm
09:17 0.0 °C -0.3 °C 1010.0 hPa Calm     98 % 0.0 mm
09:22 0.1 °C -0.2 °C 1010.0 hPa Calm     98 % 0.0 mm
09:42 0.4 °C 0.1 °C 1010.0 hPa Calm   3.2 km/h 98 % 0.0 mm
09:47 0.5 °C 0.2 °C 1010.0 hPa Calm   3.2 km/h 98 % 0.0 mm
09:52 0.5 °C 0.2 °C 1010.0 hPa Calm   3.2 km/h 98 % 0.0 mm
09:57 0.6 °C 0.3 °C 1010.0 hPa Calm     98 % 0.0 mm
10:12 0.8 °C 0.4 °C 1010.0 hPa Calm     97 % 0.0 mm
10:17 0.9 °C 0.5 °C 1010.4 hPa Calm     97 % 0.0 mm
10:22 1.1 °C 0.7 °C 1010.4 hPa Calm     97 % 0.0 mm
10:27 1.3 °C 0.9 °C 1010.4 hPa Calm   1.6 km/h 97 % 0.0 mm
10:32 1.4 °C 1.0 °C 1010.4 hPa Calm   1.6 km/h 97 % 0.0 mm
10:37 1.5 °C 0.9 °C 1010.4 hPa Calm   1.6 km/h 96 % 0.0 mm
10:42 1.7 °C 1.1 °C 1010.4 hPa Calm   1.6 km/h 96 % 0.0 mm
10:47 1.8 °C 1.2 °C 1010.4 hPa Calm   1.6 km/h 96 % 0.0 mm
10:52 2.0 °C 1.3 °C 1010.4 hPa Calm   1.6 km/h 95 % 0.0 mm
10:57 2.3 °C 1.7 °C 1010.0 hPa SW 1.6 km/h 1.6 km/h 96 % 0.0 mm
11:02 2.7 °C 2.0 °C 1010.0 hPa Calm   1.6 km/h 95 % 0.0 mm
11:07 3.1 °C 2.2 °C 1010.4 hPa SW 1.6 km/h 4.8 km/h 94 % 0.0 mm
11:12 3.2 °C 2.0 °C 1010.4 hPa WSW 1.6 km/h 4.8 km/h 92 % 0.0 mm
11:17 3.2 °C 2.0 °C 1010.4 hPa SW 1.6 km/h 4.8 km/h 92 % 0.0 mm
11:22 3.4 °C 1.9 °C 1010.4 hPa Calm   4.8 km/h 90 % 0.0 mm
11:27 3.7 °C 2.1 °C 1010.4 hPa SW 3.2 km/h 4.8 km/h 89 % 0.0 mm
11:37 3.8 °C 2.0 °C 1010.7 hPa SW 1.6 km/h 3.2 km/h 88 % 0.0 mm
11:42 4.0 °C 2.4 °C 1010.7 hPa Calm   6.4 km/h 89 % 0.0 mm
11:52 4.1 °C 2.1 °C 1010.4 hPa SW 3.2 km/h 6.4 km/h 87 % 0.0 mm
11:57 4.1 °C 2.3 °C 1010.4 hPa WSW 1.6 km/h 6.4 km/h 88 % 0.3 mm
12:02 4.0 °C 2.5 °C 1010.4 hPa Calm   8.0 km/h 90 % 0.3 mm
12:07 3.9 °C 2.6 °C 1010.4 hPa WSW 3.2 km/h 8.0 km/h 91 % 0.5 mm
12:12 3.7 °C 2.5 °C 1010.4 hPa SW 3.2 km/h 9.7 km/h 92 % 0.5 mm
12:17 3.7 °C 2.7 °C 1010.4 hPa WSW 1.6 km/h 9.7 km/h 93 % 0.5 mm
12:22 3.8 °C 2.8 °C 1010.4 hPa SW 4.8 km/h 9.7 km/h 93 % 0.5 mm
12:27 3.8 °C 2.8 °C 1010.4 hPa SW 4.8 km/h 9.7 km/h 93 % 0.5 mm
12:32 3.8 °C 2.9 °C 1010.4 hPa Calm   9.7 km/h 94 % 0.5 mm
12:37 3.8 °C 2.9 °C 1010.4 hPa SW 6.4 km/h 9.7 km/h 94 % 0.5 mm
12:42 3.7 °C 2.8 °C 1010.4 hPa South 1.6 km/h 8.0 km/h 94 % 0.5 mm
12:47 3.6 °C 2.7 °C 1010.7 hPa WSW 1.6 km/h 8.0 km/h 94 % 0.5 mm
12:52 3.7 °C 3.0 °C 1010.7 hPa WSW 3.2 km/h 9.7 km/h 95 % 0.5 mm
12:57 3.8 °C 3.1 °C 1010.7 hPa Calm   9.7 km/h 95 % 0.5 mm
13:02 3.9 °C 3.2 °C 1010.4 hPa SW 3.2 km/h 6.4 km/h 95 % 0.5 mm
13:12 4.1 °C 3.4 °C 1010.4 hPa Calm   8.0 km/h 95 % 0.5 mm
13:17 4.1 °C 3.4 °C 1010.4 hPa SW 1.6 km/h 6.4 km/h 95 % 0.5 mm
13:22 4.2 °C 3.5 °C 1010.4 hPa WSW 3.2 km/h 6.4 km/h 95 % 0.5 mm
13:27 4.2 °C 3.6 °C 1010.4 hPa Calm   6.4 km/h 96 % 0.5 mm
13:32 4.3 °C 3.7 °C 1010.4 hPa Calm   6.4 km/h 96 % 0.5 mm
13:37 4.4 °C 3.8 °C 1010.4 hPa SSW 1.6 km/h 4.8 km/h 96 % 0.5 mm
13:42 4.5 °C 3.9 °C 1010.0 hPa SSW 1.6 km/h 6.4 km/h 96 % 0.5 mm
13:47 4.7 °C 4.1 °C 1010.0 hPa Calm   6.4 km/h 96 % 0.5 mm
13:52 4.8 °C 4.2 °C 1010.0 hPa Calm   4.8 km/h 96 % 0.5 mm
13:57 4.9 °C 4.3 °C 1010.0 hPa SW 1.6 km/h 4.8 km/h 96 % 0.5 mm
14:02 5.1 °C 4.5 °C 1010.0 hPa Calm   4.8 km/h 96 % 0.3 mm
14:07 5.2 °C 4.5 °C 1010.4 hPa Calm   3.2 km/h 95 % 0.3 mm
14:12 5.2 °C 4.5 °C 1010.0 hPa Calm   9.7 km/h 95 % 0.0 mm
14:17 5.3 °C 4.6 °C 1010.0 hPa Calm   9.7 km/h 95 % 0.0 mm
14:22 5.3 °C 4.4 °C 1010.4 hPa Calm   9.7 km/h 94 % 0.0 mm
14:32 5.3 °C 4.3 °C 1010.4 hPa Calm   4.8 km/h 93 % 0.0 mm
14:37 5.2 °C 3.9 °C 1010.0 hPa SE 1.6 km/h 4.8 km/h 91 % 0.0 mm
14:42 5.1 °C 3.8 °C 1010.4 hPa SE 1.6 km/h 4.8 km/h 91 % 0.0 mm
14:52 4.9 °C 3.6 °C 1010.4 hPa Calm   4.8 km/h 91 % 0.0 mm
14:57 5.1 °C 3.9 °C 1010.7 hPa Calm   3.2 km/h 92 % 0.0 mm
15:02 5.5 °C 4.5 °C 1010.7 hPa Calm   3.2 km/h 93 % 0.0 mm
15:12 5.8 °C 4.1 °C 1010.4 hPa South 1.6 km/h 8.0 km/h 89 % 0.0 mm
15:17 5.8 °C 4.1 °C 1010.7 hPa SSW 4.8 km/h 8.0 km/h 89 % 0.0 mm
15:22 5.8 °C 4.1 °C 1010.7 hPa Calm   4.8 km/h 89 % 0.0 mm
15:32 5.8 °C 4.0 °C 1011.1 hPa Calm   6.4 km/h 88 % 0.0 mm
15:37 5.7 °C 3.9 °C 1011.1 hPa Calm   4.8 km/h 88 % 0.0 mm
15:42 5.6 °C 3.8 °C 1011.1 hPa Calm   6.4 km/h 88 % 0.0 mm
15:47 5.6 °C 3.9 °C 1011.1 hPa SW 1.6 km/h 6.4 km/h 89 % 0.0 mm
15:52 5.5 °C 3.8 °C 1011.1 hPa Calm   3.2 km/h 89 % 0.0 mm
15:57 5.5 °C 4.0 °C 1011.1 hPa SW 1.6 km/h 3.2 km/h 90 % 0.0 mm
16:02 5.7 °C 4.0 °C 1011.1 hPa Calm   3.2 km/h 89 % 0.0 mm
16:12 5.8 °C 3.8 °C 1011.1 hPa Calm   4.8 km/h 87 % 0.0 mm
16:17 5.8 °C 3.8 °C 1011.1 hPa SW 1.6 km/h 6.4 km/h 87 % 0.0 mm
16:22 5.8 °C 4.0 °C 1011.4 hPa Calm   6.4 km/h 88 % 0.0 mm
16:27 5.7 °C 3.9 °C 1011.4 hPa Calm   6.4 km/h 88 % 0.0 mm
16:32 5.5 °C 3.7 °C 1011.4 hPa SE 1.6 km/h 4.8 km/h 88 % 0.0 mm
16:42 5.3 °C 3.3 °C 1011.4 hPa Calm   4.8 km/h 87 % 0.0 mm
16:52 5.2 °C 3.2 °C 1011.4 hPa SW 1.6 km/h 4.8 km/h 87 % 0.0 mm
16:57 5.2 °C 3.2 °C 1011.4 hPa Calm   4.8 km/h 87 % 0.0 mm
17:02 5.1 °C 3.1 °C 1011.4 hPa Calm   4.8 km/h 87 % 0.0 mm
17:07 5.1 °C 3.0 °C 1011.7 hPa Calm   3.2 km/h 86 % 0.0 mm
17:12 5.0 °C 2.7 °C 1011.7 hPa SSW 1.6 km/h 3.2 km/h 85 % 0.0 mm
17:17 4.9 °C 2.6 °C 1011.7 hPa Calm   4.8 km/h 85 % 0.0 mm
17:22 4.7 °C 2.6 °C 1011.7 hPa Calm   4.8 km/h 86 % 0.0 mm
17:27 4.7 °C 2.6 °C 1011.7 hPa Calm   1.6 km/h 86 % 0.0 mm
17:37 4.4 °C 2.3 °C 1011.7 hPa Calm   3.2 km/h 86 % 0.0 mm
17:42 4.4 °C 2.3 °C 1012.1 hPa Calm   1.6 km/h 86 % 0.0 mm
17:52 4.3 °C 2.0 °C 1012.1 hPa WSW 1.6 km/h 1.6 km/h 85 % 0.0 mm
17:57 4.2 °C 1.9 °C 1012.1 hPa Calm   1.6 km/h 85 % 0.0 mm
18:07 4.2 °C 1.9 °C 1012.4 hPa Calm   6.4 km/h 85 % 0.0 mm
18:12 4.4 °C 2.1 °C 1012.4 hPa Calm   6.4 km/h 85 % 0.0 mm
18:17 4.3 °C 2.0 °C 1012.4 hPa Calm   6.4 km/h 85 % 0.0 mm
18:22 4.3 °C 2.0 °C 1012.4 hPa Calm   6.4 km/h 85 % 0.0 mm
18:32 4.0 °C 1.9 °C 1012.8 hPa Calm   3.2 km/h 86 % 0.0 mm
18:42 3.9 °C 1.8 °C 1012.8 hPa Calm   3.2 km/h 86 % 0.0 mm
18:47 4.0 °C 1.7 °C 1012.8 hPa Calm   4.8 km/h 85 % 0.0 mm
18:52 4.1 °C 1.8 °C 1012.8 hPa SW 1.6 km/h 4.8 km/h 85 % 0.0 mm
18:57 4.2 °C 1.9 °C 1013.1 hPa SW 1.6 km/h 6.4 km/h 85 % 0.0 mm
19:07 4.2 °C 1.9 °C 1013.1 hPa SSW 4.8 km/h 6.4 km/h 85 % 0.0 mm
19:12 4.2 °C 2.2 °C 1013.4 hPa WSW 1.6 km/h 6.4 km/h 87 % 0.3 mm
19:17 4.1 °C 2.5 °C 1013.4 hPa Calm   9.7 km/h 89 % 0.8 mm
19:32 3.7 °C 2.2 °C 1013.4 hPa SW 3.2 km/h 4.8 km/h 90 % 0.8 mm
19:37 3.6 °C 2.1 °C 1013.4 hPa SW 1.6 km/h 3.2 km/h 90 % 0.8 mm
19:42 3.6 °C 2.1 °C 1013.8 hPa SE 1.6 km/h 4.8 km/h 90 % 0.8 mm
19:47 3.6 °C 2.1 °C 1013.8 hPa SSW 1.6 km/h 6.4 km/h 90 % 0.8 mm
19:52 3.5 °C 2.0 °C 1013.8 hPa WSW 1.6 km/h 6.4 km/h 90 % 0.8 mm
20:02 3.3 °C 1.8 °C 1013.8 hPa SW 1.6 km/h 4.8 km/h 90 % 0.8 mm
20:12 3.3 °C 1.8 °C 1014.1 hPa SSW 4.8 km/h 6.4 km/h 90 % 0.3 mm
20:17 3.3 °C 1.8 °C 1014.1 hPa SSW 1.6 km/h 8.0 km/h 90 % 0.0 mm
20:22 3.3 °C 1.8 °C 1014.4 hPa SW 3.2 km/h 8.0 km/h 90 % 0.0 mm
20:32 3.3 °C 1.8 °C 1014.4 hPa Calm   4.8 km/h 90 % 0.0 mm
20:37 3.2 °C 1.7 °C 1014.4 hPa Calm   4.8 km/h 90 % 0.0 mm
20:42 3.1 °C 1.6 °C 1014.4 hPa Calm   4.8 km/h 90 % 0.0 mm
20:52 2.9 °C 1.6 °C 1014.4 hPa Calm   4.8 km/h 91 % 0.0 mm
20:57 2.8 °C 1.5 °C 1014.4 hPa South 3.2 km/h 4.8 km/h 91 % 0.0 mm
21:02 2.8 °C 1.5 °C 1014.4 hPa Calm   6.4 km/h 91 % 0.0 mm
21:07 2.6 °C 1.3 °C 1014.8 hPa Calm   6.4 km/h 91 % 0.0 mm
21:12 2.4 °C 1.2 °C 1014.8 hPa Calm   6.4 km/h 92 % 0.0 mm
21:17 2.3 °C 1.1 °C 1014.8 hPa Calm   3.2 km/h 92 % 0.0 mm
21:22 2.3 °C 1.3 °C 1014.8 hPa SW 1.6 km/h 3.2 km/h 93 % 0.0 mm
21:32 2.3 °C 1.3 °C 1014.8 hPa Calm   6.4 km/h 93 % 0.0 mm
21:37 2.3 °C 1.1 °C 1014.8 hPa Calm   6.4 km/h 92 % 0.0 mm
21:42 2.2 °C 1.2 °C 1014.8 hPa SW 1.6 km/h 6.4 km/h 93 % 0.0 mm
21:52 2.1 °C 1.1 °C 1015.1 hPa Calm   4.8 km/h 93 % 0.0 mm
21:57 2.1 °C 1.1 °C 1015.1 hPa Calm   4.8 km/h 93 % 0.0 mm
22:02 2.1 °C 1.1 °C 1015.1 hPa SW 3.2 km/h 4.8 km/h 93 % 0.0 mm
22:17 2.1 °C 1.1 °C 1015.1 hPa Calm   4.8 km/h 93 % 0.0 mm
22:22 2.1 °C 1.1 °C 1015.1 hPa SW 1.6 km/h 4.8 km/h 93 % 0.0 mm
22:32 2.2 °C 1.2 °C 1015.1 hPa SW 3.2 km/h 9.7 km/h 93 % 0.0 mm
22:37 2.3 °C 1.3 °C 1015.1 hPa SW 1.6 km/h 9.7 km/h 93 % 0.0 mm
22:42 2.3 °C 1.3 °C 1015.1 hPa SSW 3.2 km/h 9.7 km/h 93 % 0.0 mm
22:47 2.2 °C 1.2 °C 1015.1 hPa Calm   6.4 km/h 93 % 0.0 mm
22:52 2.2 °C 1.2 °C 1015.1 hPa SW 1.6 km/h 6.4 km/h 93 % 0.0 mm
23:02 2.2 °C 1.2 °C 1015.1 hPa SSE 1.6 km/h 6.4 km/h 93 % 0.0 mm
23:07 2.2 °C 1.2 °C 1015.5 hPa Calm   6.4 km/h 93 % 0.0 mm
23:12 2.1 °C 1.1 °C 1015.5 hPa SW 4.8 km/h 4.8 km/h 93 % 0.0 mm
23:17 2.1 °C 1.1 °C 1015.5 hPa Calm   6.4 km/h 93 % 0.0 mm
23:22 2.1 °C 1.1 °C 1015.5 hPa Calm   6.4 km/h 93 % 0.0 mm
23:32 1.9 °C 0.9 °C 1015.5 hPa Calm   6.4 km/h 93 % 0.0 mm
23:37 1.9 °C 0.9 °C 1015.5 hPa Calm   6.4 km/h 93 % 0.0 mm
23:42 2.0 °C 1.0 °C 1015.5 hPa Calm   4.8 km/h 93 % 0.0 mm
23:52 2.1 °C 1.1 °C 1015.8 hPa Calm   6.4 km/h 93 % 0.0 mm
23:57 2.1 °C 1.1 °C 1015.8 hPa SSW 1.6 km/h 6.4 km/h 93 % 0.0 mm
Meteo18
Compliments of Weather Underground - 4 mb

Script developed by  Jim McMurry - jmcmurry@mwt.net Adapted for the template by  Wim van der Kuil - Leuven-Template.eu

You find our weather info also at:

European Weather Network

Weather Underground

Equipment we use:

Weather-station
Davis Vue

Weather-program
Meteohub

Weather-server
Raspberry PI 2 B+

Provider
1 and 1

Davis Vue

Meteohub

Raspberry PI 2 B+

1 and 1